Winnerscup USA - trainer

Station: Trainer 25 Miles - T Race

Distance: 25 Miles

Release: 02-Mar-2018 10:45

Weather Release:    Arrival:

Wind at Release:     Wind at Arrival:

Temp at Release: °    Temp at Arrival: °

Lofts: 53

Birds: 188

Clocked: 180

10 mph nw wind....
Drops Pos Breeder Pigeon Name Color Sex Ent Arrival Speed To Win Eligible AB
101 G & L Loft - OR 2379-AU17-WPC Game Changer BB H 3 11:35:37.00 869.279 00:10:34 Yes
101 Larry Lewis - OK 8151-AU17-TRPC Only Hope BC H 5 11:35:37.00 869.279 00:10:34 Yes
103 Johnny's Automotive - CA 32889-AU17-JEDD Blue Diva BB H 1 11:35:38.00 868.993 00:10:35 Yes
104 Racing Pigeon Mall - WA 0713-AU17-RPM Gotta Take Notice BB C 5 11:35:39.00 868.707 00:10:36 Yes
104 Walstons Warriors - NC 7410-AU17-GL Dullah Bhati BB C 1 11:35:39.00 868.707 00:10:36 Yes
104 A P C Loft - TX 17353-AU17-APC Miss HighTower BB H 2 11:35:39.00 868.707 00:10:36 Yes
104 Dal-Tex R P C - TX 0440-AU17-DLLS Blue Horizon BB H 2 11:35:39.00 868.707 00:10:36 Lost
108 G & L Loft - OR 2395-AU17-WPC Brick House RC H 4 11:35:40.00 868.421 00:10:37 Yes
108 Hi-Cal Connection - CA 0789-AU17-HCAL Red Heat RC C 3 11:35:40.00 868.421 00:10:37 Yes
108 Joe Zarachowicz - MD 2270-AU17-CCC Shooter BB C 2 11:35:40.00 868.421 00:10:37 Yes
111 Nesneb Racing Loft - AL 17134-AU17-MOB Widowed BC H 3 11:35:41.00 868.135 00:10:38 Yes
112 Huan Qiu Zhang - NC 1709-AU17-JNC Kryto Run BB C 1 11:35:42.00 867.850 00:10:39 Yes
112 Daehn/Miele - FL 0402-AU17-NWFI Scheckles BB C 7 11:35:42.00 867.850 00:10:39 Yes
114 Dream Team - VT 0358-AU17-JCZL Game On BC C 3 11:35:43.00 867.565 00:10:40 Yes
114 P/R Loft - CA 0279-AU17-GSF Desciple BCW C 2 11:35:43.00 867.565 00:10:40 Yes
114 Daehn/Miele - FL 3834-AU17-FOYS Time Toy GR C 8 11:35:43.00 867.565 00:10:40 Yes
114 Hollywood Lou Loft - FL 0064-AU17-LOU American South BB C 3 11:35:43.00 867.565 00:10:40 Yes
118 Nesneb Racing Loft - AL 17141-AU17-MOB In The Money BB H 4 11:35:44.00 867.280 00:10:41 Yes
118 Daehn/Miele - FL 3837-AU17-FOYS French Braid BB H 9 11:35:44.00 867.280 00:10:41 Yes
120 Ken Easley-Silvercreek - NM 5151-AU17-ESLY Urban Kone BB C 2 11:35:45.00 866.995 00:10:42 Yes
120 Hollywood Lou Loft - FL 0063-AU17-LOU The Celebrity BB C 4 11:35:45.00 866.995 00:10:42 Yes
122 Hollywood Lou Loft - FL 0061-AU17-LOU Brilliance BB C 5 11:35:46.00 866.710 00:10:43 Yes
123 Racing Pigeon Mall - WA 0716-AU17-RPM Phantom Starlight BROZ C 6 11:35:47.00 866.426 00:10:44 Yes
124 Daehn/Miele - FL 3836-AU17-FOYS Lasting Impression BB C 10 11:35:48.00 866.142 00:10:45 Yes
124 Dream Team - VT 0421-AU17-JCZL National One BC C 4 11:35:48.00 866.142 00:10:45 Yes
126 Dream Team - VT 0610-AU17-JCZL Great Rendition BB C 5 11:35:49.00 865.858 00:10:46 Yes
127 Huan Qiu Zhang - NC 1711-AU17-JNC Bit Chain BCW C 2 11:35:51.00 865.290 00:10:48 Yes
127 Tar Syndicate - PA 12035-AU17-LLP Syndicate BC H 1 11:35:51.00 865.290 00:10:48 Yes
127 Goshentown Lofts - TN 1788-AU17-NPA Native Power BCWF C 3 11:35:51.00 865.290 00:10:48 Yes
130 Hollywood Lou Loft - FL 0062-AU17-LOU Midnite Lace BB H 6 11:35:52.00 865.007 00:10:49 Yes
131 A B C Loft2 - NY 1441-AU17-BORO Manhattan BC C 5 11:35:53.00 864.723 00:10:50 Yes
131 John Partridge - CA 0618-AU17-PASO The Aristocrat BC C 3 11:35:53.00 864.723 00:10:50 Yes
133 Tanai Kantisiri - CA 2929-AU17-COM Prelude BB H 2 11:35:54.00 864.440 00:10:51 Yes
133 Ken Easley-Silvercreek - NM 5162-AU17-ESLY Ria BB C 3 11:35:54.00 864.440 00:10:51 Yes
135 Tar Syndicate - PA 7976-AU17-TAR Game to Win DC C 2 11:35:55.00 864.157 00:10:52 Yes
135 Nesler Boyz - CA 1764-AU17-TCH Tag Me Sold BB H 4 11:35:55.00 864.157 00:10:52 Yes
137 Sienna Loft - NC 37802-AU17-AA Admiral Halsey BB C 4 11:35:56.00 863.874 00:10:53 Yes
137 Ganus Family Loft - IN 0296-AU17-GFL Draft Me Now BC C 4 11:35:56.00 863.874 00:10:53 Yes
139 El Dorado Loft - TX 0184-AU17-TXAS Manfreddy BKCW C 1 11:35:57.00 863.592 00:10:54 Yes
140 Ken Easley-Silvercreek - NM 5140-AU17-ESLY Kees BB H 4 11:35:58.00 863.309 00:10:55 Yes
140 Ganus Family Loft - IN 0292-AU17-GFL Planet Icon BC H 5 11:35:58.00 863.309 00:10:55 Yes
142 Champ Camp - IN 0275-AU17-CHMP Scirrocco BB H 8 11:35:59.00 863.027 00:10:56 Yes
142 Sienna Loft - NC 36820-AU17-AA Baby Doll BC H 5 11:35:59.00 863.027 00:10:56 Yes
144 Daehn/Miele - FL 3838-AU17-FOYS Bamboozled BB H 11 11:36:00.00 862.745 00:10:57 Yes
145 Sarrett Racing Pigeons - TX 7048-AU17-PPH Target' BB H 3 11:36:01.00 862.463 00:10:58 Yes
145 A P C Loft - TX 17377-AU17-APC Tantric Sleeper SMOK H 3 11:36:01.00 862.463 00:10:58 Yes
147 A D L Sheila - IL 0202-AU17-ADL National Two BB C 4 11:36:02.00 862.182 00:10:59 Yes
148 Hollywood Lou Loft - FL 0074-AU17-LOU Imposter BWFP C 7 11:36:04.00 861.619 00:11:01 Yes
148 Nesler Boyz - CA 1796-AU17-TCH Front Runner BWFP C 5 11:36:04.00 861.619 00:11:01 Yes
150 P/R Loft - CA 0282-AU17-GSF Mezmerise BB H 3 11:36:05.00 861.338 00:11:02 Yes
151 Joe Zarachowicz - MD 2261-AU17-CCC Castaway GR C 3 11:36:06.00 861.057 00:11:03 Yes
152 A P C Loft - TX 17369-AU17-APC Let It Be Known BC C 4 11:36:07.00 860.776 00:11:04 Yes
153 Dream Team - VT 0573-AU17-JCZL Point Blank BC C 6 11:36:09.00 860.215 00:11:06 Yes
153 Canto & Wiltz - MA 10977-AU17-AA Tanker BB C 2 11:36:09.00 860.215 00:11:06 Yes
155 Valhalla Loft - CA 0492-AU17-WSJ REIMAR BB C 2 11:36:12.00 859.375 00:11:09 Yes
156 Daehn/Miele - FL 3841-AU17-FOYS Sweet Million BC C 12 11:36:13.00 859.095 00:11:10 Yes
157 Daehn/Miele - FL 3842-AU17-FOYS Easy Ryder BC C 13 11:36:17.00 857.979 00:11:14 Yes
158 Bluestreak - OK 7809-AU17-TRPC Indecent Proposal BL H 1 11:36:25.00 855.754 00:11:22 Yes
159 Canto & Wiltz - MA 10998-AU17-AA Orbitaar BB C 3 11:36:26.00 855.476 00:11:23 Yes
160 Jack's Loft - CA 4400-AU17-FOYS Peanuts BC C 6 11:36:32.00 853.816 00:11:29 Yes
161 Johnny's Automotive - CA 32902-AU17-JEDD Roadie BB H 2 11:36:45.00 850.242 00:11:42 Yes
162 Champ Camp - IN 0225-AU17-CHMP Point Well Taken BB C 9 11:36:47.00 849.694 00:11:44 Yes
163 Sextons Loft - IA 31779-AU17-AA Svetlana BC H 6 11:36:48.00 849.421 00:11:45 Yes
164 Ojibwe Loft - OK 0041-AU17-OJIB HIGHWATER BB C 3 11:36:52.00 848.329 00:11:49 Yes
165 Hi-Cal Connection - CA 0785-AU17-HCAL Under Seige PEN C 4 11:37:18.00 841.300 00:12:15 Yes
166 Aurelio Aranda - AZ 42214-AU17-AA ARMALITE DCWF C 3 11:43:20.00 754.286 00:18:17 Yes
166 Sextons Loft - IA 31766-AU17-AA Adverse Condition BB C 7 11:43:20.00 754.286 00:18:17 Yes
166 Johnny's Automotive - CA 32891-AU17-JEDD Remember August BC H 3 11:43:20.00 754.286 00:18:17 Yes
169 Jack's Loft - CA 4393-AU17-FOYS Today's Hero SIL C 7 11:43:23.00 753.640 00:18:20 Yes
169 Tar Syndicate - PA 7815-AU17-TAR Packer BB H 3 11:43:23.00 753.640 00:18:20 Yes
171 Bieche-Stevenson - CA 7444-AU17-BIEC Blue Million BBWF C 1 11:50:13.00 674.674 00:25:10 Yes
172 Champ Camp - IN 0231-AU17-CHMP NEVER BEFORE BB C 10 11:51:48.00 658.683 00:26:45 Yes
173 Crescendo Loft - NM 18441-AU17-AA Horizon Echo BB C 2 11:53:54.00 638.607 00:28:51 Yes
174 Walstons Warriors - NC 7404-AU17-GL NAPOLEON BB C 2 11:54:24.00 634.006 00:29:21 Yes
175 Bieche-Stevenson - CA 7497-AU17-BIEC Maximus BB C 2 11:54:40.00 631.579 00:29:37 Yes
176 A D L Loft - IL 0168-AU17-ADL Maverick BB H 2 12:03:14.00 562.420 00:38:11 Yes
177 Johnny's Automotive - CA 32920-AU17-JEDD Deliverance BB C 4 12:38:36.00 387.324 01:13:33 Yes
178 A B C Loft2 - NY 59780-AU17-ARPU National Asset BB C 6 13:01:53.00 321.442 01:36:50 Yes
179 John Partridge - CA 0623-AU17-PASO Monet BBWF C 4 16:34:32.00 125.882 05:09:29 Yes
180 Jack's Loft - CA 36719-AU17-ARPU Mas Arena BC C 8 17:33:49.00 107.628 06:08:46 Yes

There are 262 bird records

Note: These Race Results are unofficial and subject to change until verified by the Race Committee and declared final.